Time;durP1;ratioP1;P1;durP2;ratioP2;P2;SDS_P1;SDS_P2;PMS_P1;PMS_P2;Temp;Humidity;BMP_temperature;BMP_pressure;BME280_temperature;BME280_humidity;BME280_pressure;Samples;Min_cycle;Max_cycle;Signal;HPM_P1;HPM_P2
2023/02/16 00:02:10;;;;;;;;;80.00;67.50;;;;;7.36;56.27;99696.59;7584651;23;96367;-65
2023/02/16 00:05:24;;;;;;;;;78.00;65.00;;;;;7.33;56.34;99696.13;7586792;23;96591;-65
2023/02/16 00:08:28;;;;;;;;;77.25;66.00;;;;;7.31;56.17;99690.09;7585009;23;96309;-64
2023/02/16 00:14:54;;;;;;;;;79.20;67.40;;;;;7.22;56.40;99691.19;7583391;23;96427;-64
2023/02/16 00:17:59;;;;;;;;;78.00;67.75;;;;;6.99;57.15;99685.81;7651756;22;96224;-65
2023/02/16 00:21:04;;;;;;;;;79.40;65.80;;;;;7.00;56.94;99678.63;7701678;22;96668;-65
2023/02/16 00:24:08;;;;;;;;;75.40;64.40;;;;;6.95;57.33;99679.16;7702222;22;96322;-64
2023/02/16 00:27:17;;;;;;;;;79.40;69.00;;;;;6.83;57.46;99680.59;7703349;22;96294;-64
2023/02/16 00:30:22;;;;;;;;;84.80;71.00;;;;;6.67;58.06;99667.31;7675706;22;96254;-64
2023/02/16 00:33:25;;;;;;;;;81.00;70.00;;;;;6.59;57.76;99664.69;7675300;22;96629;-64
2023/02/16 00:36:30;;;;;;;;;83.00;72.00;;;;;6.52;58.01;99665.38;7676639;22;96266;-64
2023/02/16 00:39:34;;;;;;;;;86.00;73.25;;;;;6.45;57.96;99664.41;7703445;22;96359;-64
2023/02/16 00:42:37;;;;;;;;;87.00;76.00;;;;;6.36;58.31;99667.31;7702991;22;96235;-65
2023/02/16 00:45:44;;;;;;;;;85.00;73.00;;;;;6.29;58.62;99647.63;7703289;22;96684;-64
2023/02/16 00:48:47;;;;;;;;;85.25;72.75;;;;;6.29;58.42;99655.66;7702924;22;96266;-64
2023/02/16 00:51:52;;;;;;;;;80.60;72.00;;;;;6.28;58.70;99657.50;7702335;22;96200;-64
2023/02/16 00:54:56;;;;;;;;;87.60;75.00;;;;;6.30;58.42;99654.66;7733288;22;96842;-64
2023/02/16 00:58:06;;;;;;;;;103.00;89.00;;;;;6.26;58.30;99653.31;7741430;22;96312;-64
2023/02/16 01:01:14;;;;;;;;;83.25;70.75;;;;;6.21;58.88;99644.97;7742168;22;96537;-64
2023/02/16 01:04:21;;;;;;;;;78.40;66.60;;;;;6.12;58.84;99638.00;7741864;22;96817;-64
2023/02/16 01:11:08;;;;;;;;;76.60;66.20;;;;;5.87;58.68;99592.59;7624070;22;97633;-64
2023/02/16 01:14:15;;;;;;;;;76.00;61.80;;;;;6.06;58.81;99626.13;7713435;22;96164;-64
2023/02/16 01:17:18;;;;;;;;;74.50;60.50;;;;;6.00;58.47;99622.34;7713346;22;96542;-64
2023/02/16 01:20:24;;;;;;;;;73.75;60.25;;;;;6.00;58.41;99611.63;7741950;22;96728;-64
2023/02/16 01:23:28;;;;;;;;;75.75;61.00;;;;;6.03;57.90;99615.78;7742846;22;96605;-64
2023/02/16 01:26:34;;;;;;;;;75.00;60.60;;;;;5.98;58.29;99610.13;7714801;22;96379;-64
2023/02/16 01:29:37;;;;;;;;;74.00;59.00;;;;;5.95;58.20;99616.69;7741176;22;96760;-64
2023/02/16 01:32:40;;;;;;;;;71.75;55.00;;;;;5.94;58.19;99604.28;7740376;22;96316;-64
2023/02/16 01:35:44;;;;;;;;;72.75;58.25;;;;;5.94;58.10;99606.13;7713930;22;96364;-64
2023/02/16 01:38:50;;;;;;;;;72.75;55.75;;;;;5.92;58.33;99603.63;7741480;22;96153;-64
2023/02/16 01:42:09;;;;;;;;;71.00;55.20;;;;;5.94;58.15;99600.78;7713577;22;96570;-64
2023/02/16 01:45:18;;;;;;;;;70.40;52.00;;;;;5.94;58.21;99598.09;7741052;22;96347;-64
2023/02/16 01:48:25;;;;;;;;;70.00;53.25;;;;;5.91;58.56;99593.09;7740765;22;96331;-64
2023/02/16 01:51:35;;;;;;;;;71.00;53.00;;;;;5.85;58.97;99589.25;7713638;22;96354;-64
2023/02/16 01:54:44;;;;;;;;;70.80;53.40;;;;;5.90;58.60;99586.91;7712930;22;96835;-64
2023/02/16 01:57:51;;;;;;;;;73.00;58.50;;;;;5.85;58.71;99586.56;7740318;22;96442;-65
2023/02/16 02:01:35;;;;;;;;;72.20;55.20;;;;;5.80;58.72;99582.75;7713232;22;96270;-64
2023/02/16 02:08:11;;;;;;;;;71.80;58.00;;;;;5.70;59.12;99577.63;7742110;22;96321;-64
2023/02/16 02:11:21;;;;;;;;;73.75;61.00;;;;;5.64;58.92;99571.09;7714009;22;96585;-64
2023/02/16 02:14:35;;;;;;;;;75.60;59.60;;;;;5.56;58.92;99570.31;7714045;22;96160;-64
2023/02/16 02:17:39;;;;;;;;;76.00;60.00;;;;;5.45;58.90;99563.50;7713456;22;96306;-64
2023/02/16 02:24:48;;;;;;;;;77.25;63.50;;;;;5.29;59.53;99565.38;7742337;22;96315;-64
2023/02/16 02:28:01;;;;;;;;;76.00;64.50;;;;;5.25;59.77;99570.25;7714582;22;96804;-64
2023/02/16 02:31:10;;;;;;;;;86.20;71.40;;;;;5.20;59.86;99568.06;7714203;22;96324;-64
2023/02/16 02:34:28;;;;;;;;;82.20;69.80;;;;;5.14;60.14;99565.25;7714481;22;96070;-64
2023/02/16 02:37:44;;;;;;;;;78.80;68.20;;;;;5.23;60.07;99561.53;7713519;22;96412;-63
2023/02/16 02:40:58;;;;;;;;;82.00;65.40;;;;;5.14;60.67;99560.72;7713648;22;96934;-64
2023/02/16 02:44:09;;;;;;;;;74.80;61.20;;;;;5.05;61.40;99564.44;7713245;22;96893;-64
2023/02/16 02:47:12;;;;;;;;;72.75;57.25;;;;;5.12;60.98;99560.09;7686643;22;96528;-64
2023/02/16 02:50:37;;;;;;;;;69.50;53.50;;;;;5.09;61.30;99562.25;7712699;22;96233;-64
2023/02/16 02:53:47;;;;;;;;;70.00;55.00;;;;;5.08;61.14;99571.28;7712389;22;96272;-64
2023/02/16 03:03:51;;;;;;;;;74.60;57.00;;;;;5.18;60.60;99567.41;7711000;22;96348;-64
2023/02/16 03:06:58;;;;;;;;;72.00;54.00;;;;;5.11;60.47;99570.94;7712824;22;97101;-64
2023/02/16 03:12:44;;;;;;;;;72.75;53.75;;;;;5.12;60.66;99569.94;7740223;22;96973;-63
2023/02/16 03:13:29;;;;;;;;;74.00;55.80;;;;;5.10;60.48;99570.09;7713447;22;96563;-64
2023/02/16 03:16:37;;;;;;;;;73.00;59.00;;;;;4.95;60.73;99579.81;7713829;22;97140;-63
2023/02/16 03:29:53;;;;;;;;;73.50;60.75;;;;;4.75;60.32;99579.31;7739629;22;96282;-64
2023/02/16 03:32:57;;;;;;;;;74.80;58.20;;;;;4.64;61.05;99581.53;7738309;22;96291;-64
2023/02/16 03:36:02;;;;;;;;;77.00;64.80;;;;;4.56;60.67;99587.69;7711972;22;96526;-64
2023/02/16 03:39:07;;;;;;;;;73.25;57.25;;;;;4.31;62.02;99583.31;7740966;22;96219;-63
2023/02/16 03:42:10;;;;;;;;;69.20;53.40;;;;;4.48;61.68;99586.84;7741047;22;96597;-64
2023/02/16 03:45:13;;;;;;;;;70.00;54.75;;;;;4.50;61.68;99582.16;7741895;22;96897;-63
2023/02/16 03:48:18;;;;;;;;;71.40;54.40;;;;;4.48;61.79;99578.84;7741566;22;96934;-63
2023/02/16 03:51:21;;;;;;;;;69.00;52.20;;;;;4.48;61.65;99576.16;7742128;22;96362;-64
2023/02/16 03:54:25;;;;;;;;;67.40;51.20;;;;;4.39;62.44;99570.00;7740818;22;96258;-64
2023/02/16 03:57:28;;;;;;;;;68.80;51.80;;;;;4.36;62.79;99567.63;7715218;22;96310;-63
2023/02/16 04:00:32;;;;;;;;;64.20;50.00;;;;;4.40;62.74;99574.31;7741053;22;96209;-64
2023/02/16 04:03:36;;;;;;;;;67.25;51.00;;;;;4.34;62.82;99570.50;7741325;22;96505;-63
2023/02/16 04:06:40;;;;;;;;;63.40;48.40;;;;;4.35;62.80;99573.97;7741617;22;96427;-63
2023/02/16 04:09:44;;;;;;;;;62.60;49.40;;;;;4.34;63.22;99569.66;7741778;22;96326;-64
2023/02/16 04:12:48;;;;;;;;;61.40;46.80;;;;;4.37;62.93;99574.66;7742305;22;96796;-64
2023/02/16 04:15:51;;;;;;;;;64.80;49.80;;;;;4.41;62.92;99575.97;7740748;22;96187;-64
2023/02/16 04:18:56;;;;;;;;;66.40;50.00;;;;;4.42;63.08;99574.16;7741778;22;96224;-63
2023/02/16 04:21:59;;;;;;;;;60.40;46.20;;;;;4.45;63.10;99585.31;7741676;22;96455;-64
2023/02/16 04:25:02;;;;;;;;;63.20;48.80;;;;;4.45;63.03;99571.16;7742956;22;96370;-64
2023/02/16 04:28:06;;;;;;;;;64.00;50.00;;;;;4.47;62.75;99572.66;7741780;22;96499;-64
2023/02/16 04:31:09;;;;;;;;;64.00;49.00;;;;;4.54;63.03;99563.00;7741871;22;96318;-64
2023/02/16 04:34:14;;;;;;;;;63.80;49.20;;;;;4.46;63.06;99559.47;7741306;22;96409;-64
2023/02/16 04:37:17;;;;;;;;;63.20;47.40;;;;;4.49;62.73;99556.47;7741565;22;96303;-64
2023/02/16 04:40:21;;;;;;;;;59.20;46.40;;;;;4.48;62.50;99547.63;7712027;22;96555;-63
2023/02/16 04:43:24;;;;;;;;;65.80;48.80;;;;;4.51;62.42;99562.47;7739722;22;96197;-64
2023/02/16 04:46:27;;;;;;;;;61.00;47.75;;;;;4.56;62.07;99554.78;7736499;22;96927;-64
2023/02/16 04:49:32;;;;;;;;;62.40;48.00;;;;;4.57;62.04;99543.13;7738331;22;96263;-64
2023/02/16 04:52:36;;;;;;;;;62.40;49.00;;;;;4.54;62.35;99549.63;7739200;22;96766;-64
2023/02/16 04:55:39;;;;;;;;;60.00;47.60;;;;;4.56;61.75;99554.78;7740721;22;96536;-64
2023/02/16 04:58:43;;;;;;;;;60.00;47.20;;;;;4.65;61.73;99548.44;7740198;22;96852;-64
2023/02/16 05:01:46;;;;;;;;;58.00;46.00;;;;;4.69;61.71;99550.59;7738783;22;96457;-63
2023/02/16 05:04:51;;;;;;;;;58.25;46.00;;;;;4.69;61.59;99549.81;7738754;22;96351;-64
2023/02/16 05:07:54;;;;;;;;;61.20;45.80;;;;;4.70;61.43;99552.28;7739710;22;96146;-64
2023/02/16 05:17:40;;;;;;;;;59.40;45.80;;;;;4.77;61.30;99547.94;7741512;22;97336;-64
2023/02/16 05:24:07;;;;;;;;;60.75;46.00;;;;;4.79;61.31;99547.75;7692104;22;96640;-64
2023/02/16 05:27:13;;;;;;;;;59.60;44.20;;;;;4.77;60.89;99536.44;7738738;22;96190;-64
2023/02/16 05:30:16;;;;;;;;;58.00;46.00;;;;;4.78;60.53;99532.75;7739210;22;96132;-64
2023/02/16 05:33:20;;;;;;;;;58.80;44.00;;;;;4.74;61.06;99542.13;7738775;22;96260;-64
2023/02/16 05:36:25;;;;;;;;;57.80;44.00;;;;;4.69;61.04;99547.13;7739301;22;96144;-64
2023/02/16 05:39:28;;;;;;;;;56.80;45.00;;;;;4.61;61.45;99547.13;7711510;22;96518;-64
2023/02/16 05:42:31;;;;;;;;;57.25;44.00;;;;;4.55;61.35;99543.28;7737586;22;96504;-65
2023/02/16 05:45:35;;;;;;;;;56.00;43.60;;;;;4.63;61.47;99550.47;7739153;22;97496;-64
2023/02/16 05:48:38;;;;;;;;;57.00;44.75;;;;;4.62;61.42;99551.47;7710889;22;96730;-64
2023/02/16 05:51:43;;;;;;;;;54.80;43.80;;;;;4.59;61.54;99543.78;7712444;22;96412;-64
2023/02/16 05:54:46;;;;;;;;;60.00;44.00;;;;;4.71;61.07;99551.28;7710379;22;97684;-65
2023/02/16 05:57:49;;;;;;;;;55.60;43.20;;;;;4.80;61.09;99557.44;7740307;22;96168;-64
2023/02/16 06:00:53;;;;;;;;;53.20;42.20;;;;;4.86;61.15;99567.47;7740470;22;96263;-65
2023/02/16 06:03:56;;;;;;;;;54.40;43.20;;;;;4.96;60.36;99561.94;7738724;22;96184;-65
2023/02/16 06:07:01;;;;;;;;;52.00;42.00;;;;;5.07;60.18;99566.94;7738839;22;96152;-64
2023/02/16 06:10:05;;;;;;;;;55.80;44.00;;;;;5.15;60.01;99559.75;7739731;22;96240;-64
2023/02/16 06:13:09;;;;;;;;;53.00;41.00;;;;;5.22;59.89;99562.56;7740308;22;96130;-64
2023/02/16 06:16:12;;;;;;;;;52.60;41.40;;;;;5.31;59.57;99566.88;7713503;22;96362;-64
2023/02/16 06:19:17;;;;;;;;;55.75;43.00;;;;;5.47;59.31;99566.00;7741944;22;96821;-64
2023/02/16 06:22:22;;;;;;;;;56.40;44.00;;;;;5.68;58.36;99563.56;7740364;22;96891;-63
2023/02/16 06:25:25;;;;;;;;;53.80;42.00;;;;;6.02;56.82;99561.41;7737450;22;96414;-64
2023/02/16 06:28:29;;;;;;;;;53.00;42.75;;;;;6.37;56.36;99580.59;7737009;22;96129;-64
2023/02/16 06:31:32;;;;;;;;;53.50;42.50;;;;;6.73;55.15;99573.66;7737999;22;96749;-65
2023/02/16 06:34:38;;;;;;;;;51.40;41.40;;;;;7.10;53.96;99566.59;7736554;22;96211;-64
2023/02/16 06:37:44;;;;;;;;;55.00;41.00;;;;;7.62;52.79;99556.63;7737711;22;96989;-64
2023/02/16 06:40:47;;;;;;;;;53.40;43.00;;;;;8.40;50.79;99549.72;7738677;22;96352;-64
2023/02/16 06:43:50;;;;;;;;;51.00;41.60;;;;;9.68;47.55;99552.94;7737532;22;97189;-64
2023/02/16 06:46:54;;;;;;;;;54.20;42.60;;;;;11.16;44.16;99561.78;7738328;22;96829;-64
2023/02/16 06:49:57;;;;;;;;;58.40;44.60;;;;;12.32;40.86;99559.97;7739214;22;96247;-65
2023/02/16 06:53:02;;;;;;;;;56.00;43.00;;;;;13.21;38.69;99557.06;7738591;22;97021;-65
2023/02/16 06:56:06;;;;;;;;;51.25;41.00;;;;;13.72;37.29;99567.59;7738477;22;96722;-65
2023/02/16 06:59:11;;;;;;;;;49.75;40.75;;;;;14.29;36.69;99566.25;7738586;22;96923;-65
2023/02/16 07:02:16;;;;;;;;;54.00;42.50;;;;;14.83;35.21;99567.19;7738870;22;96225;-65
2023/02/16 07:05:19;;;;;;;;;50.50;40.25;;;;;15.03;34.32;99578.56;7713117;22;96223;-65
2023/02/16 07:08:23;;;;;;;;;52.00;41.50;;;;;15.35;33.64;99581.78;7739753;22;97134;-64
2023/02/16 07:11:27;;;;;;;;;48.75;41.00;;;;;15.66;33.17;99580.63;7738546;22;96998;-65
2023/02/16 07:14:31;;;;;;;;;54.20;42.00;;;;;15.59;32.99;99584.28;7737338;22;96211;-65
2023/02/16 07:17:34;;;;;;;;;56.00;42.00;;;;;15.95;32.71;99582.34;7738802;22;96379;-65
2023/02/16 07:20:37;;;;;;;;;54.20;43.80;;;;;16.38;32.21;99577.25;7738349;22;96321;-64
2023/02/16 07:23:42;;;;;;;;;53.40;41.60;;;;;16.78;31.48;99571.78;7711868;22;96809;-65
2023/02/16 07:26:46;;;;;;;;;56.00;45.00;;;;;17.03;31.14;99576.00;7739538;22;97004;-66
2023/02/16 07:29:49;;;;;;;;;52.00;43.00;;;;;17.55;29.54;99579.28;7738778;22;96290;-66
2023/02/16 07:32:53;;;;;;;;;59.25;44.75;;;;;18.27;28.70;99580.03;7738919;22;98111;-64
2023/02/16 07:35:56;;;;;;;;;55.00;43.00;;;;;19.04;27.30;99574.31;7739048;22;96202;-64
2023/02/16 07:39:01;;;;;;;;;55.00;43.60;;;;;20.54;25.99;99572.75;7711512;22;96696;-64
2023/02/16 07:42:04;;;;;;;;;55.00;42.00;;;;;21.87;24.86;99580.75;7740766;22;96399;-64
2023/02/16 07:45:09;;;;;;;;;49.50;41.00;;;;;22.80;22.83;99575.44;7713625;22;96017;-64
2023/02/16 07:48:13;;;;;;;;;53.00;43.75;;;;;23.74;21.91;99576.03;7739501;22;96359;-65
2023/02/16 07:51:21;;;;;;;;;55.33;43.00;;;;;24.65;20.91;99574.09;7710626;22;96461;-65
2023/02/16 07:54:26;;;;;;;;;53.00;40.60;;;;;25.16;20.67;99571.44;7737447;22;96236;-65
2023/02/16 07:57:29;;;;;;;;;53.20;43.40;;;;;25.43;19.92;99574.28;7738973;22;96934;-65
2023/02/16 08:00:32;;;;;;;;;51.00;41.00;;;;;25.98;20.05;99569.69;7738062;22;96500;-65
2023/02/16 08:03:36;;;;;;;;;52.60;41.00;;;;;26.48;18.84;99572.56;7739812;22;96283;-66
2023/02/16 08:06:39;;;;;;;;;49.50;39.50;;;;;26.65;18.08;99565.25;7742124;22;96263;-66
2023/02/16 08:09:44;;;;;;;;;50.00;40.00;;;;;27.26;18.46;99565.78;7742290;22;96303;-66
2023/02/16 08:12:48;;;;;;;;;47.00;40.00;;;;;27.60;17.34;99557.72;7744684;22;96305;-66
2023/02/16 08:15:52;;;;;;;;;50.80;40.20;;;;;28.21;17.05;99570.72;7744140;22;96652;-66
2023/02/16 08:18:57;;;;;;;;;50.80;39.40;;;;;28.64;16.42;99570.81;7745629;22;97072;-66
2023/02/16 08:22:02;;;;;;;;;48.75;40.25;;;;;29.04;16.28;99571.53;7744392;22;96271;-66
2023/02/16 08:25:07;;;;;;;;;51.40;41.00;;;;;29.35;16.28;99570.56;7744870;22;96846;-66
2023/02/16 08:28:13;;;;;;;;;49.20;41.00;;;;;29.69;15.65;99560.19;7744423;22;96925;-66
2023/02/16 08:31:19;;;;;;;;;49.40;39.60;;;;;29.68;15.41;99566.88;7742581;22;96650;-66
2023/02/16 08:34:23;;;;;;;;;51.00;40.00;;;;;29.81;15.56;99569.78;7743805;22;96336;-66
2023/02/16 08:37:27;;;;;;;;;49.60;40.00;;;;;29.94;14.89;99563.22;7745827;22;96884;-66
2023/02/16 08:40:37;;;;;;;;;51.20;39.20;;;;;30.19;14.90;99553.94;7752565;22;96265;-66
2023/02/16 08:43:40;;;;;;;;;50.00;39.00;;;;;30.69;14.77;99550.41;7747651;22;96216;-66
2023/02/16 08:46:46;;;;;;;;;50.25;39.25;;;;;30.86;14.68;99544.69;7717877;22;96689;-66
2023/02/16 08:49:50;;;;;;;;;50.80;39.80;;;;;31.24;14.74;99528.63;7717164;22;96584;-66
2023/02/16 08:52:53;;;;;;;;;52.00;41.00;;;;;31.52;14.30;99539.97;7745441;22;96174;-66
2023/02/16 08:55:59;;;;;;;;;48.60;39.00;;;;;31.83;14.13;99545.06;7745771;22;96340;-66
2023/02/16 08:59:02;;;;;;;;;48.40;38.00;;;;;31.97;13.71;99530.75;7747625;22;96355;-66
2023/02/16 09:02:06;;;;;;;;;52.00;41.40;;;;;31.87;13.40;99534.81;7745426;22;96372;-66
2023/02/16 09:05:10;;;;;;;;;49.60;40.00;;;;;32.28;13.60;99533.81;7747249;22;96060;-66
2023/02/16 09:08:14;;;;;;;;;47.80;39.00;;;;;32.33;13.85;99522.41;7746459;22;96385;-66
2023/02/16 09:11:19;;;;;;;;;46.00;38.00;;;;;32.39;13.69;99534.97;7717425;22;96409;-66
2023/02/16 09:14:24;;;;;;;;;47.20;38.00;;;;;32.51;13.50;99539.72;7745222;22;96364;-66
2023/02/16 09:17:28;;;;;;;;;45.60;37.60;;;;;32.28;13.94;99547.78;7744682;22;96270;-66
2023/02/16 09:20:32;;;;;;;;;45.00;36.60;;;;;32.14;13.42;99538.94;7746203;22;96241;-67
2023/02/16 09:23:35;;;;;;;;;47.80;38.40;;;;;32.03;13.66;99535.78;7749667;22;96446;-67
2023/02/16 09:26:41;;;;;;;;;47.67;38.67;;;;;32.23;13.42;99543.25;7747681;22;96153;-67
2023/02/16 09:29:45;;;;;;;;;49.80;40.00;;;;;32.07;13.69;99533.91;7747093;22;96201;-67
2023/02/16 09:32:48;;;;;;;;;46.80;38.80;;;;;31.94;13.48;99525.91;7742903;22;96872;-67
2023/02/16 09:35:51;;;;;;;;;47.00;38.00;;;;;31.56;13.91;99534.53;7742508;22;96203;-67
2023/02/16 09:38:56;;;;;;;;;47.00;38.25;;;;;30.63;14.13;99516.38;7739542;22;96704;-67
2023/02/16 09:42:23;;;;;;;;;48.60;36.80;;;;;30.54;15.04;99518.41;7710729;22;96825;-67
2023/02/16 09:45:28;;;;;;;;;42.75;35.50;;;;;30.30;14.60;99515.44;7739055;22;96433;-67
2023/02/16 09:48:35;;;;;;;;;44.60;36.40;;;;;29.94;15.32;99516.78;7738762;22;96231;-67
2023/02/16 09:51:40;;;;;;;;;45.40;35.00;;;;;29.62;14.85;99511.81;7740030;22;96162;-67
2023/02/16 09:54:49;;;;;;;;;44.40;35.80;;;;;29.45;15.85;99518.25;7738209;22;96880;-67
2023/02/16 09:58:04;;;;;;;;;40.60;31.60;;;;;29.01;15.42;99513.06;7740291;22;96409;-67
2023/02/16 10:01:17;;;;;;;;;38.80;32.60;;;;;29.46;15.95;99510.72;7741511;22;96547;-67
2023/02/16 10:04:37;;;;;;;;;43.00;33.80;;;;;29.77;15.68;99522.38;7742529;22;96264;-67
2023/02/16 10:07:50;;;;;;;;;39.80;34.80;;;;;29.81;15.39;99520.53;7744072;22;96268;-67
2023/02/16 10:11:02;;;;;;;;;41.25;35.00;;;;;29.87;15.08;99512.84;7745531;22;96253;-67
2023/02/16 10:14:17;;;;;;;;;43.75;35.00;;;;;30.06;15.59;99510.47;7747984;22;96280;-67
2023/02/16 10:17:29;;;;;;;;;44.20;35.80;;;;;29.68;15.50;99510.47;7719209;22;96698;-67
2023/02/16 10:20:37;;;;;;;;;44.00;35.20;;;;;29.38;15.68;99509.59;7746495;22;96518;-68
2023/02/16 10:23:46;;;;;;;;;47.20;38.00;;;;;29.30;15.84;99507.63;7747732;22;97015;-67
2023/02/16 10:27:01;;;;;;;;;45.00;37.00;;;;;29.03;16.39;99508.03;7745151;22;96202;-67
2023/02/16 10:30:14;;;;;;;;;45.25;36.50;;;;;28.01;16.63;99518.59;7743109;22;97088;-67
2023/02/16 10:33:25;;;;;;;;;46.00;36.00;;;;;27.90;17.19;99517.28;7744558;22;96811;-67
2023/02/16 10:36:44;;;;;;;;;44.00;35.00;;;;;27.83;16.78;99516.91;7745952;22;96240;-67
2023/02/16 10:39:54;;;;;;;;;45.00;35.00;;;;;27.85;17.72;99504.41;7743744;22;96189;-67
2023/02/16 10:43:06;;;;;;;;;38.60;33.00;;;;;27.45;17.37;99502.72;7744699;22;96799;-67
2023/02/16 10:46:17;;;;;;;;;41.75;34.75;;;;;27.19;17.84;99496.19;7716283;22;96183;-67
2023/02/16 10:49:21;;;;;;;;;39.60;32.60;;;;;27.23;17.81;99495.25;7744948;22;96200;-67
2023/02/16 10:52:28;;;;;;;;;40.40;33.40;;;;;27.29;17.71;99493.16;7744586;22;96335;-67
2023/02/16 10:55:31;;;;;;;;;37.60;32.00;;;;;27.30;17.65;99498.38;7744007;22;96236;-67
2023/02/16 10:58:40;;;;;;;;;35.00;30.00;;;;;27.30;17.77;99490.09;7744126;22;96318;-67
2023/02/16 11:01:48;;;;;;;;;34.80;30.00;;;;;27.25;17.94;99483.88;7744478;22;97085;-67
2023/02/16 11:04:53;;;;;;;;;38.00;32.00;;;;;26.91;17.85;99476.16;7744882;22;96277;-66
2023/02/16 11:08:00;;;;;;;;;34.00;30.00;;;;;26.51;18.32;99469.63;7745283;22;96236;-66
2023/02/16 11:11:09;;;;;;;;;33.60;30.00;;;;;26.37;18.01;99461.38;7745457;22;96194;-67
2023/02/16 11:14:21;;;;;;;;;33.00;29.00;;;;;26.71;18.20;99461.66;7717531;22;96611;-67
2023/02/16 11:17:27;;;;;;;;;39.20;31.80;;;;;26.34;18.44;99448.16;7744743;22;96196;-66
2023/02/16 11:20:32;;;;;;;;;37.25;32.00;;;;;26.12;18.84;99445.34;7744617;22;96387;-66
2023/02/16 11:23:37;;;;;;;;;37.50;30.00;;;;;26.14;18.47;99448.63;7743346;22;96470;-66
2023/02/16 11:26:40;;;;;;;;;37.60;32.00;;;;;25.97;18.98;99452.00;7743395;22;96299;-66
2023/02/16 11:29:44;;;;;;;;;37.00;32.00;;;;;26.14;18.78;99446.69;7741639;22;96261;-66
2023/02/16 11:32:50;;;;;;;;;38.20;32.00;;;;;26.21;19.02;99440.69;7740854;22;96963;-66
2023/02/16 11:35:55;;;;;;;;;38.50;33.00;;;;;26.02;19.03;99413.22;7742833;22;96893;-66
2023/02/16 11:39:02;;;;;;;;;34.80;32.00;;;;;26.26;18.89;99426.81;7716181;22;96862;-67
2023/02/16 11:42:09;;;;;;;;;38.80;31.40;;;;;26.45;18.74;99415.56;7715454;22;96349;-66
2023/02/16 11:45:25;;;;;;;;;35.00;30.40;;;;;26.22;19.04;99415.56;7742916;22;96294;-66
2023/02/16 11:48:32;;;;;;;;;35.60;31.60;;;;;26.44;18.98;99405.66;7714326;22;96834;-66
2023/02/16 11:51:36;;;;;;;;;38.40;32.40;;;;;26.53;18.91;99412.06;7744034;22;96294;-66
2023/02/16 11:54:48;;;;;;;;;33.80;30.00;;;;;26.65;18.72;99412.31;7743582;22;96227;-66
2023/02/16 11:57:52;;;;;;;;;38.00;32.40;;;;;26.67;18.84;99407.28;7744707;22;96154;-66
2023/02/16 12:01:08;;;;;;;;;31.40;28.00;;;;;26.35;19.16;99397.28;7744475;22;96344;-66
2023/02/16 12:04:24;;;;;;;;;39.50;34.75;;;;;25.90;19.21;99387.28;7717254;22;96598;-66
2023/02/16 12:07:36;;;;;;;;;42.75;34.50;;;;;26.11;19.24;99389.25;7746136;22;96876;-66
2023/02/16 12:11:01;;;;;;;;;39.40;31.80;;;;;26.35;19.20;99382.63;7719289;22;96431;-67
2023/02/16 12:14:19;;;;;;;;;38.80;31.60;;;;;26.65;19.08;99385.47;7751596;22;96184;-67
2023/02/16 12:17:34;;;;;;;;;38.80;32.20;;;;;26.73;18.65;99383.91;7745718;22;96536;-67
2023/02/16 12:20:49;;;;;;;;;42.00;35.00;;;;;26.36;18.85;99376.81;7743025;22;96516;-64
2023/02/16 12:23:58;;;;;;;;;34.20;32.00;;;;;25.88;19.38;99374.56;7745194;22;96296;-66
2023/02/16 12:27:04;;;;;;;;;43.20;34.20;;;;;25.00;20.01;99375.00;7744603;22;96806;-66
2023/02/16 12:30:24;;;;;;;;;38.00;32.20;;;;;24.89;20.47;99374.34;7718070;22;96366;-66
2023/02/16 12:33:41;;;;;;;;;37.00;33.00;;;;;24.73;20.63;99367.44;7745976;22;96331;-66
2023/02/16 12:36:57;;;;;;;;;43.40;35.00;;;;;24.50;20.92;99360.13;7749788;22;96480;-65
2023/02/16 12:40:11;;;;;;;;;39.20;32.00;;;;;24.48;20.94;99354.91;7748284;22;96370;-66
2023/02/16 12:43:31;;;;;;;;;41.50;33.00;;;;;24.66;20.55;99352.41;7747925;22;96207;-66
2023/02/16 12:46:39;;;;;;;;;38.80;31.80;;;;;24.27;21.15;99347.31;7747982;22;96267;-68
2023/02/16 12:49:51;;;;;;;;;39.25;32.25;;;;;24.14;21.23;99337.84;7717892;22;96813;-66
2023/02/16 12:53:01;;;;;;;;;42.60;32.60;;;;;23.59;21.81;99337.53;7743376;22;97153;-65
2023/02/16 12:56:13;;;;;;;;;36.00;31.00;;;;;23.16;22.51;99341.38;7741652;22;96448;-65
2023/02/16 12:59:22;;;;;;;;;38.20;33.00;;;;;22.72;22.93;99331.41;7743136;22;96921;-65
2023/02/16 13:02:32;;;;;;;;;37.00;32.00;;;;;22.29;23.53;99326.78;7741848;22;96437;-65
2023/02/16 13:05:37;;;;;;;;;34.40;30.20;;;;;22.06;23.73;99319.28;7745001;22;96431;-65
2023/02/16 13:08:47;;;;;;;;;42.00;35.00;;;;;21.87;23.88;99319.94;7719066;22;96270;-65
2023/02/16 13:11:55;;;;;;;;;38.20;32.20;;;;;21.53;24.39;99319.88;7718357;22;96243;-65
2023/02/16 13:15:06;;;;;;;;;38.20;31.20;;;;;21.41;24.52;99319.38;7743702;22;96258;-65
2023/02/16 13:18:20;;;;;;;;;33.00;30.00;;;;;21.04;25.42;99310.75;7743351;22;96218;-65
2023/02/16 13:22:02;;;;;;;;;32.00;28.50;;;;;21.19;25.33;99313.47;7740513;22;96281;-65
2023/02/16 13:25:34;;;;;;;;;31.60;28.20;;;;;21.06;25.14;99301.13;7701310;22;96494;-65
2023/02/16 13:28:57;;;;;;;;;34.00;30.00;;;;;21.05;24.81;99307.75;7744048;22;97010;-65
2023/02/16 13:32:24;;;;;;;;;35.40;31.40;;;;;20.91;24.99;99298.47;7715426;22;96754;-65
2023/02/16 13:35:51;;;;;;;;;34.50;32.00;;;;;20.85;25.04;99306.97;7742460;22;96248;-65
2023/02/16 13:39:12;;;;;;;;;35.00;30.40;;;;;20.78;24.96;99304.50;7744832;22;96229;-65
2023/02/16 13:42:39;;;;;;;;;31.40;26.20;;;;;20.67;24.78;99303.72;7743910;22;96819;-65
2023/02/16 13:45:45;;;;;;;;;31.50;28.50;;;;;20.42;25.23;99306.53;7744558;22;96330;-65
2023/02/16 13:48:52;;;;;;;;;28.20;25.80;;;;;20.17;25.74;99269.00;7745110;22;96120;-65
2023/02/16 13:51:55;;;;;;;;;30.20;26.60;;;;;20.19;25.97;99290.59;7742640;22;96239;-65
2023/02/16 13:55:01;;;;;;;;;34.00;29.00;;;;;20.03;26.00;99298.03;7743007;22;96829;-65
2023/02/16 13:58:26;;;;;;;;;27.00;26.00;;;;;19.86;26.59;99297.44;7743942;22;96422;-65
2023/02/16 14:01:41;;;;;;;;;30.00;27.00;;;;;19.76;26.11;99284.56;7744005;22;96343;-65
2023/02/16 14:05:09;;;;;;;;;33.00;29.60;;;;;19.54;26.77;99292.22;7742988;22;96698;-65
2023/02/16 14:08:19;;;;;;;;;29.00;26.00;;;;;19.28;27.12;99291.28;7743306;22;96088;-65
2023/02/16 14:11:22;;;;;;;;;32.00;26.00;;;;;18.96;27.86;99291.41;7741341;22;96256;-65
2023/02/16 14:14:34;;;;;;;;;28.50;25.50;;;;;18.98;27.90;99291.16;7741521;22;96183;-64
2023/02/16 14:17:38;;;;;;;;;29.80;26.40;;;;;18.85;27.87;99291.66;7742472;22;96167;-67
2023/02/16 14:20:41;;;;;;;;;27.40;24.40;;;;;18.86;27.96;99290.56;7742538;22;96472;-66
2023/02/16 14:23:45;;;;;;;;;30.20;26.00;;;;;18.86;28.41;99296.03;7742786;22;96284;-67
2023/02/16 14:26:54;;;;;;;;;29.40;26.00;;;;;18.74;28.56;99290.75;7744352;22;97879;-66
2023/02/16 14:30:02;;;;;;;;;27.20;23.60;;;;;18.54;28.82;99296.94;7715721;22;97106;-67
2023/02/16 14:33:21;;;;;;;;;31.00;25.00;;;;;18.38;28.78;99303.34;7743291;22;96199;-66
2023/02/16 14:36:25;;;;;;;;;30.00;25.00;;;;;18.31;29.12;99283.66;7743816;22;96270;-66
2023/02/16 14:39:29;;;;;;;;;32.40;26.40;;;;;18.37;28.74;99292.69;7742120;22;97487;-67
2023/02/16 14:42:35;;;;;;;;;27.80;24.80;;;;;18.26;29.07;99285.50;7713608;22;96309;-66
2023/02/16 14:46:01;;;;;;;;;30.40;25.00;;;;;18.21;29.15;99288.19;7743346;22;96245;-66
2023/02/16 14:49:43;;;;;;;;;27.25;26.00;;;;;18.10;29.28;99279.94;7743447;22;96325;-66
2023/02/16 14:53:17;;;;;;;;;30.00;27.00;;;;;18.00;29.47;99298.13;7742071;22;96641;-66
2023/02/16 14:56:41;;;;;;;;;29.00;27.00;;;;;17.77;29.69;99290.28;7742525;22;96851;-66
2023/02/16 14:59:51;;;;;;;;;29.75;26.25;;;;;17.45;30.26;99282.84;7741723;22;97410;-66
2023/02/16 15:02:58;;;;;;;;;32.40;29.60;;;;;17.08;31.14;99279.97;7741087;22;96248;-66
2023/02/16 15:06:04;;;;;;;;;29.20;25.80;;;;;16.91;30.94;99272.97;7712684;22;96754;-66
2023/02/16 15:09:15;;;;;;;;;29.00;26.00;;;;;16.67;31.65;99270.47;7740420;22;96632;-66